Metar z połowy godziny Komunikat METAR ze strony awiacja.imgw.pl Metar G00 EPWR METAR EPWR 070030Z 28010KT 250V310 9999 -RA SCT008 BKN012 02/01 Q1012 =